Terminal Aerodrome Forecast
Issued by NWS

Current Version | Previous Version | Graphics & Text | Print | Product List | Glossary On
Versions: 1 2 3 4 5 6 7 8 9 10 11 12 13 14 15 16 17 18 19 20 21 22 23 24 25 26
000
FTUS41 KPBZ 171958 AAA
TAFHLG
TAF AMD
KHLG 171958Z 1720/1818 VRB05KT 1SM -SN OVC018
      TEMPO 1720/1723 1/2SM SN
     FM180000 25005KT 2SM -SN OVC012
     FM180200 26008KT P6SM VCSH OVC010
     FM180400 26007KT P6SM BKN015
     FM181400 30008KT P6SM OVC025=

USA.gov is the U.S. government's official web portal to all federal, state and local government web resources and services.